sensor_id;sensor_type;location;lat;lon;timestamp;temperature;humidity
37910;DHT22;23741;49.446;8.754;2024-02-23T00:01:51;12.70;65.30
37910;DHT22;23741;49.446;8.754;2024-02-23T00:03:53;12.70;65.00
37910;DHT22;23741;49.446;8.754;2024-02-23T00:05:57;12.70;65.20
37910;DHT22;23741;49.446;8.754;2024-02-23T00:07:59;12.70;65.70
37910;DHT22;23741;49.446;8.754;2024-02-23T00:10:01;12.70;64.90
37910;DHT22;23741;49.446;8.754;2024-02-23T00:12:03;12.60;64.80
37910;DHT22;23741;49.446;8.754;2024-02-23T00:14:05;12.60;64.90
37910;DHT22;23741;49.446;8.754;2024-02-23T00:16:07;12.60;64.70
37910;DHT22;23741;49.446;8.754;2024-02-23T00:18:08;12.60;64.80
37910;DHT22;23741;49.446;8.754;2024-02-23T00:20:10;12.60;64.90
37910;DHT22;23741;49.446;8.754;2024-02-23T00:22:13;12.60;65.20
37910;DHT22;23741;49.446;8.754;2024-02-23T00:24:15;12.60;63.70
37910;DHT22;23741;49.446;8.754;2024-02-23T00:26:18;12.60;64.10
37910;DHT22;23741;49.446;8.754;2024-02-23T00:28:20;12.50;64.40
37910;DHT22;23741;49.446;8.754;2024-02-23T00:30:21;12.50;64.00
37910;DHT22;23741;49.446;8.754;2024-02-23T00:32:23;12.40;64.50
37910;DHT22;23741;49.446;8.754;2024-02-23T00:34:25;12.40;64.80
37910;DHT22;23741;49.446;8.754;2024-02-23T00:36:27;12.40;64.80
37910;DHT22;23741;49.446;8.754;2024-02-23T00:38:29;12.40;64.40
37910;DHT22;23741;49.446;8.754;2024-02-23T00:40:30;12.40;64.50
37910;DHT22;23741;49.446;8.754;2024-02-23T00:42:32;12.30;65.00
37910;DHT22;23741;49.446;8.754;2024-02-23T00:44:34;12.30;65.10
37910;DHT22;23741;49.446;8.754;2024-02-23T00:46:36;12.30;65.10
37910;DHT22;23741;49.446;8.754;2024-02-23T00:48:37;12.30;65.30
37910;DHT22;23741;49.446;8.754;2024-02-23T00:50:39;12.30;64.90
37910;DHT22;23741;49.446;8.754;2024-02-23T00:52:41;12.20;64.90
37910;DHT22;23741;49.446;8.754;2024-02-23T00:54:43;12.30;64.80
37910;DHT22;23741;49.446;8.754;2024-02-23T00:56:45;12.20;64.70
37910;DHT22;23741;49.446;8.754;2024-02-23T00:58:53;12.20;64.70
37910;DHT22;23741;49.446;8.754;2024-02-23T01:00:58;12.20;64.90
37910;DHT22;23741;49.446;8.754;2024-02-23T01:03:00;12.20;65.10
37910;DHT22;23741;49.446;8.754;2024-02-23T01:05:02;12.20;65.20
37910;DHT22;23741;49.446;8.754;2024-02-23T01:07:04;12.20;65.20
37910;DHT22;23741;49.446;8.754;2024-02-23T01:09:06;12.20;65.20
37910;DHT22;23741;49.446;8.754;2024-02-23T01:11:08;12.20;65.40
37910;DHT22;23741;49.446;8.754;2024-02-23T01:13:09;12.20;65.60
37910;DHT22;23741;49.446;8.754;2024-02-23T01:15:11;12.10;65.50
37910;DHT22;23741;49.446;8.754;2024-02-23T01:17:13;12.20;65.20
37910;DHT22;23741;49.446;8.754;2024-02-23T01:19:15;12.20;65.30
37910;DHT22;23741;49.446;8.754;2024-02-23T01:21:17;12.10;65.40
37910;DHT22;23741;49.446;8.754;2024-02-23T01:23:20;12.10;65.30
37910;DHT22;23741;49.446;8.754;2024-02-23T01:25:21;12.10;65.40
37910;DHT22;23741;49.446;8.754;2024-02-23T01:27:23;12.10;65.00
37910;DHT22;23741;49.446;8.754;2024-02-23T01:29:25;12.10;65.10
37910;DHT22;23741;49.446;8.754;2024-02-23T01:31:30;12.00;65.40
37910;DHT22;23741;49.446;8.754;2024-02-23T01:33:32;12.10;65.00
37910;DHT22;23741;49.446;8.754;2024-02-23T01:35:34;12.00;64.80
37910;DHT22;23741;49.446;8.754;2024-02-23T01:37:36;12.00;64.60
37910;DHT22;23741;49.446;8.754;2024-02-23T01:39:38;12.00;64.70
37910;DHT22;23741;49.446;8.754;2024-02-23T01:41:40;12.00;64.80
37910;DHT22;23741;49.446;8.754;2024-02-23T01:43:42;11.90;64.50
37910;DHT22;23741;49.446;8.754;2024-02-23T01:45:44;11.90;64.50
37910;DHT22;23741;49.446;8.754;2024-02-23T01:47:45;11.90;64.60
37910;DHT22;23741;49.446;8.754;2024-02-23T01:49:47;11.90;64.80
37910;DHT22;23741;49.446;8.754;2024-02-23T01:51:49;11.90;64.70
37910;DHT22;23741;49.446;8.754;2024-02-23T01:53:51;11.90;64.60
37910;DHT22;23741;49.446;8.754;2024-02-23T01:55:53;11.80;64.40
37910;DHT22;23741;49.446;8.754;2024-02-23T01:57:56;11.90;64.50
37910;DHT22;23741;49.446;8.754;2024-02-23T01:59:58;11.80;64.80
37910;DHT22;23741;49.446;8.754;2024-02-23T02:02:02;11.80;65.10
37910;DHT22;23741;49.446;8.754;2024-02-23T02:04:04;11.80;64.80
37910;DHT22;23741;49.446;8.754;2024-02-23T02:06:06;11.80;64.50
37910;DHT22;23741;49.446;8.754;2024-02-23T02:08:09;11.80;64.50
37910;DHT22;23741;49.446;8.754;2024-02-23T02:10:12;11.80;64.20
37910;DHT22;23741;49.446;8.754;2024-02-23T02:12:13;11.80;64.10
37910;DHT22;23741;49.446;8.754;2024-02-23T02:14:16;11.80;64.20
37910;DHT22;23741;49.446;8.754;2024-02-23T02:16:18;11.70;64.00
37910;DHT22;23741;49.446;8.754;2024-02-23T02:18:19;11.70;64.40
37910;DHT22;23741;49.446;8.754;2024-02-23T02:20:23;11.70;64.80
37910;DHT22;23741;49.446;8.754;2024-02-23T02:28:43;11.70;65.00
37910;DHT22;23741;49.446;8.754;2024-02-23T02:30:45;11.70;65.40
37910;DHT22;23741;49.446;8.754;2024-02-23T02:32:47;11.70;65.60
37910;DHT22;23741;49.446;8.754;2024-02-23T02:34:49;11.70;65.70
37910;DHT22;23741;49.446;8.754;2024-02-23T02:36:51;11.70;65.50
37910;DHT22;23741;49.446;8.754;2024-02-23T02:38:53;11.60;65.20
37910;DHT22;23741;49.446;8.754;2024-02-23T02:40:54;11.60;65.30
37910;DHT22;23741;49.446;8.754;2024-02-23T02:50:10;11.60;65.70
37910;DHT22;23741;49.446;8.754;2024-02-23T02:52:12;11.50;65.10
37910;DHT22;23741;49.446;8.754;2024-02-23T02:54:14;11.50;65.40
37910;DHT22;23741;49.446;8.754;2024-02-23T02:56:16;11.50;65.70
37910;DHT22;23741;49.446;8.754;2024-02-23T02:58:18;11.40;65.70
37910;DHT22;23741;49.446;8.754;2024-02-23T03:00:19;11.50;65.80
37910;DHT22;23741;49.446;8.754;2024-02-23T03:02:21;11.40;65.90
37910;DHT22;23741;49.446;8.754;2024-02-23T03:04:23;11.40;65.90
37910;DHT22;23741;49.446;8.754;2024-02-23T03:06:25;11.40;66.00
37910;DHT22;23741;49.446;8.754;2024-02-23T03:08:27;11.40;65.90
37910;DHT22;23741;49.446;8.754;2024-02-23T03:10:29;11.40;66.00
37910;DHT22;23741;49.446;8.754;2024-02-23T03:12:31;11.50;66.10
37910;DHT22;23741;49.446;8.754;2024-02-23T03:14:32;11.40;65.70
37910;DHT22;23741;49.446;8.754;2024-02-23T03:16:38;11.50;66.00
37910;DHT22;23741;49.446;8.754;2024-02-23T03:18:40;11.40;66.10
37910;DHT22;23741;49.446;8.754;2024-02-23T03:20:42;11.40;66.10
37910;DHT22;23741;49.446;8.754;2024-02-23T03:22:44;11.50;66.30
37910;DHT22;23741;49.446;8.754;2024-02-23T03:24:45;11.50;66.30
37910;DHT22;23741;49.446;8.754;2024-02-23T03:26:47;11.50;66.40
37910;DHT22;23741;49.446;8.754;2024-02-23T03:28:49;11.50;66.30
37910;DHT22;23741;49.446;8.754;2024-02-23T03:30:51;11.50;66.20
37910;DHT22;23741;49.446;8.754;2024-02-23T03:32:52;11.40;66.20
37910;DHT22;23741;49.446;8.754;2024-02-23T03:34:54;11.50;66.30
37910;DHT22;23741;49.446;8.754;2024-02-23T03:36:56;11.50;66.30
37910;DHT22;23741;49.446;8.754;2024-02-23T03:39:00;11.50;66.40
37910;DHT22;23741;49.446;8.754;2024-02-23T03:41:02;11.50;66.50
37910;DHT22;23741;49.446;8.754;2024-02-23T03:43:03;11.50;66.50
37910;DHT22;23741;49.446;8.754;2024-02-23T03:45:05;11.50;66.40
37910;DHT22;23741;49.446;8.754;2024-02-23T03:47:07;11.50;66.60
37910;DHT22;23741;49.446;8.754;2024-02-23T03:49:09;11.50;66.50
37910;DHT22;23741;49.446;8.754;2024-02-23T03:51:11;11.50;66.40
37910;DHT22;23741;49.446;8.754;2024-02-23T03:53:12;11.50;66.00
37910;DHT22;23741;49.446;8.754;2024-02-23T03:55:14;11.40;65.20
37910;DHT22;23741;49.446;8.754;2024-02-23T03:57:16;11.40;65.20
37910;DHT22;23741;49.446;8.754;2024-02-23T03:59:18;11.40;65.70
37910;DHT22;23741;49.446;8.754;2024-02-23T04:01:20;11.40;65.80
37910;DHT22;23741;49.446;8.754;2024-02-23T04:03:21;11.40;65.90
37910;DHT22;23741;49.446;8.754;2024-02-23T04:05:23;11.40;65.70
37910;DHT22;23741;49.446;8.754;2024-02-23T04:07:25;11.40;65.60
37910;DHT22;23741;49.446;8.754;2024-02-23T04:09:27;11.40;65.70
37910;DHT22;23741;49.446;8.754;2024-02-23T04:11:30;11.40;65.60
37910;DHT22;23741;49.446;8.754;2024-02-23T04:13:31;11.40;65.70
37910;DHT22;23741;49.446;8.754;2024-02-23T04:15:33;11.40;65.90
37910;DHT22;23741;49.446;8.754;2024-02-23T04:17:35;11.40;66.00
37910;DHT22;23741;49.446;8.754;2024-02-23T04:19:37;11.40;66.00
37910;DHT22;23741;49.446;8.754;2024-02-23T04:21:39;11.40;65.90
37910;DHT22;23741;49.446;8.754;2024-02-23T04:23:41;11.40;66.00
37910;DHT22;23741;49.446;8.754;2024-02-23T04:25:42;11.40;66.20
37910;DHT22;23741;49.446;8.754;2024-02-23T04:27:44;11.40;66.00
37910;DHT22;23741;49.446;8.754;2024-02-23T04:29:46;11.50;66.10
37910;DHT22;23741;49.446;8.754;2024-02-23T04:31:47;11.50;65.80
37910;DHT22;23741;49.446;8.754;2024-02-23T04:33:49;11.40;65.40
37910;DHT22;23741;49.446;8.754;2024-02-23T04:35:51;11.50;65.20
37910;DHT22;23741;49.446;8.754;2024-02-23T04:37:53;11.40;65.10
37910;DHT22;23741;49.446;8.754;2024-02-23T04:39:55;11.50;64.90
37910;DHT22;23741;49.446;8.754;2024-02-23T04:41:57;11.50;65.00
37910;DHT22;23741;49.446;8.754;2024-02-23T04:43:58;11.40;65.10
37910;DHT22;23741;49.446;8.754;2024-02-23T04:46:03;11.40;64.50
37910;DHT22;23741;49.446;8.754;2024-02-23T04:48:05;11.40;64.40
37910;DHT22;23741;49.446;8.754;2024-02-23T04:50:07;11.40;64.60
37910;DHT22;23741;49.446;8.754;2024-02-23T04:52:10;11.40;65.20
37910;DHT22;23741;49.446;8.754;2024-02-23T04:54:12;11.30;64.40
37910;DHT22;23741;49.446;8.754;2024-02-23T04:56:14;11.30;64.20
37910;DHT22;23741;49.446;8.754;2024-02-23T04:58:16;11.30;64.00
37910;DHT22;23741;49.446;8.754;2024-02-23T05:00:17;11.30;64.00
37910;DHT22;23741;49.446;8.754;2024-02-23T05:02:19;11.20;64.10
37910;DHT22;23741;49.446;8.754;2024-02-23T05:04:21;11.20;64.50
37910;DHT22;23741;49.446;8.754;2024-02-23T05:06:23;11.20;64.60
37910;DHT22;23741;49.446;8.754;2024-02-23T05:08:25;11.20;64.40
37910;DHT22;23741;49.446;8.754;2024-02-23T05:10:29;11.20;64.50
37910;DHT22;23741;49.446;8.754;2024-02-23T05:12:30;11.20;64.60
37910;DHT22;23741;49.446;8.754;2024-02-23T05:14:32;11.20;64.60
37910;DHT22;23741;49.446;8.754;2024-02-23T05:16:34;11.20;64.70
37910;DHT22;23741;49.446;8.754;2024-02-23T05:18:36;11.20;64.60
37910;DHT22;23741;49.446;8.754;2024-02-23T05:20:38;11.20;64.40
37910;DHT22;23741;49.446;8.754;2024-02-23T05:22:40;11.20;64.60
37910;DHT22;23741;49.446;8.754;2024-02-23T05:24:41;11.20;64.70
37910;DHT22;23741;49.446;8.754;2024-02-23T05:26:43;11.20;64.60
37910;DHT22;23741;49.446;8.754;2024-02-23T05:28:46;11.20;65.10
37910;DHT22;23741;49.446;8.754;2024-02-23T05:30:47;11.20;64.60
37910;DHT22;23741;49.446;8.754;2024-02-23T05:32:50;11.10;64.50
37910;DHT22;23741;49.446;8.754;2024-02-23T05:34:51;11.10;64.70
37910;DHT22;23741;49.446;8.754;2024-02-23T05:36:55;11.10;64.80
37910;DHT22;23741;49.446;8.754;2024-02-23T05:38:57;11.10;64.60
37910;DHT22;23741;49.446;8.754;2024-02-23T05:40:59;11.00;64.40
37910;DHT22;23741;49.446;8.754;2024-02-23T05:43:01;11.00;64.10
37910;DHT22;23741;49.446;8.754;2024-02-23T05:45:03;11.00;64.20
37910;DHT22;23741;49.446;8.754;2024-02-23T05:47:06;11.00;64.70
37910;DHT22;23741;49.446;8.754;2024-02-23T05:49:08;10.90;64.30
37910;DHT22;23741;49.446;8.754;2024-02-23T05:51:11;10.90;64.50
37910;DHT22;23741;49.446;8.754;2024-02-23T05:53:13;10.90;64.20
37910;DHT22;23741;49.446;8.754;2024-02-23T05:55:15;10.90;64.20
37910;DHT22;23741;49.446;8.754;2024-02-23T05:57:16;10.90;64.30
37910;DHT22;23741;49.446;8.754;2024-02-23T05:59:18;10.80;64.20
37910;DHT22;23741;49.446;8.754;2024-02-23T06:01:20;10.80;64.10
37910;DHT22;23741;49.446;8.754;2024-02-23T06:03:21;10.80;64.30
37910;DHT22;23741;49.446;8.754;2024-02-23T06:05:23;10.90;64.40
37910;DHT22;23741;49.446;8.754;2024-02-23T06:07:29;10.80;64.70
37910;DHT22;23741;49.446;8.754;2024-02-23T06:09:31;10.80;64.50
37910;DHT22;23741;49.446;8.754;2024-02-23T06:11:33;10.80;64.20
37910;DHT22;23741;49.446;8.754;2024-02-23T06:13:34;10.80;64.30
37910;DHT22;23741;49.446;8.754;2024-02-23T06:15:36;10.80;64.10
37910;DHT22;23741;49.446;8.754;2024-02-23T06:17:38;10.80;64.20
37910;DHT22;23741;49.446;8.754;2024-02-23T06:19:42;10.80;64.20
37910;DHT22;23741;49.446;8.754;2024-02-23T06:21:47;10.80;64.10
37910;DHT22;23741;49.446;8.754;2024-02-23T06:23:49;10.80;64.20
37910;DHT22;23741;49.446;8.754;2024-02-23T06:25:51;10.70;64.20
37910;DHT22;23741;49.446;8.754;2024-02-23T06:27:53;10.70;63.90
37910;DHT22;23741;49.446;8.754;2024-02-23T06:29:55;10.70;63.90
37910;DHT22;23741;49.446;8.754;2024-02-23T06:31:57;10.70;64.20
37910;DHT22;23741;49.446;8.754;2024-02-23T06:33:59;10.70;64.60
37910;DHT22;23741;49.446;8.754;2024-02-23T06:36:02;10.60;64.70
37910;DHT22;23741;49.446;8.754;2024-02-23T06:38:05;10.60;63.90
37910;DHT22;23741;49.446;8.754;2024-02-23T06:40:08;10.60;63.70
37910;DHT22;23741;49.446;8.754;2024-02-23T06:42:10;10.60;63.90
37910;DHT22;23741;49.446;8.754;2024-02-23T06:44:12;10.60;63.50
37910;DHT22;23741;49.446;8.754;2024-02-23T06:46:13;10.50;64.00
37910;DHT22;23741;49.446;8.754;2024-02-23T06:48:15;10.50;63.50
37910;DHT22;23741;49.446;8.754;2024-02-23T06:50:17;10.50;64.10
37910;DHT22;23741;49.446;8.754;2024-02-23T06:52:19;10.50;64.20
37910;DHT22;23741;49.446;8.754;2024-02-23T06:54:21;10.40;63.80
37910;DHT22;23741;49.446;8.754;2024-02-23T06:56:23;10.40;64.20
37910;DHT22;23741;49.446;8.754;2024-02-23T06:58:25;10.40;63.80
37910;DHT22;23741;49.446;8.754;2024-02-23T07:00:26;10.30;64.20
37910;DHT22;23741;49.446;8.754;2024-02-23T07:02:28;10.30;63.60
37910;DHT22;23741;49.446;8.754;2024-02-23T07:04:33;10.30;64.10
37910;DHT22;23741;49.446;8.754;2024-02-23T07:06:35;10.20;63.90
37910;DHT22;23741;49.446;8.754;2024-02-23T07:08:39;10.20;63.60
37910;DHT22;23741;49.446;8.754;2024-02-23T07:10:41;10.20;63.70
37910;DHT22;23741;49.446;8.754;2024-02-23T07:12:43;10.20;63.80
37910;DHT22;23741;49.446;8.754;2024-02-23T07:14:46;10.10;63.50
37910;DHT22;23741;49.446;8.754;2024-02-23T07:16:47;10.10;63.60
37910;DHT22;23741;49.446;8.754;2024-02-23T07:18:49;10.10;63.20
37910;DHT22;23741;49.446;8.754;2024-02-23T07:20:51;10.10;63.10
37910;DHT22;23741;49.446;8.754;2024-02-23T07:22:53;10.10;63.50
37910;DHT22;23741;49.446;8.754;2024-02-23T07:24:55;10.10;64.10
37910;DHT22;23741;49.446;8.754;2024-02-23T07:26:56;10.10;63.30
37910;DHT22;23741;49.446;8.754;2024-02-23T07:28:58;10.10;62.80
37910;DHT22;23741;49.446;8.754;2024-02-23T07:31:00;10.10;63.50
37910;DHT22;23741;49.446;8.754;2024-02-23T07:33:02;10.10;63.60
37910;DHT22;23741;49.446;8.754;2024-02-23T07:35:04;10.10;63.60
37910;DHT22;23741;49.446;8.754;2024-02-23T07:37:06;10.10;63.80
37910;DHT22;23741;49.446;8.754;2024-02-23T07:39:08;10.20;63.50
37910;DHT22;23741;49.446;8.754;2024-02-23T07:41:10;10.20;63.70
37910;DHT22;23741;49.446;8.754;2024-02-23T07:43:12;10.20;63.40
37910;DHT22;23741;49.446;8.754;2024-02-23T07:45:14;10.20;64.40
37910;DHT22;23741;49.446;8.754;2024-02-23T07:47:16;10.20;63.70
37910;DHT22;23741;49.446;8.754;2024-02-23T07:49:18;10.20;63.50
37910;DHT22;23741;49.446;8.754;2024-02-23T07:51:20;10.20;63.80
37910;DHT22;23741;49.446;8.754;2024-02-23T07:53:22;10.30;63.70
37910;DHT22;23741;49.446;8.754;2024-02-23T07:55:24;10.30;64.00
37910;DHT22;23741;49.446;8.754;2024-02-23T07:57:26;10.30;63.60
37910;DHT22;23741;49.446;8.754;2024-02-23T07:59:28;10.30;63.40
37910;DHT22;23741;49.446;8.754;2024-02-23T08:01:30;10.30;63.50
37910;DHT22;23741;49.446;8.754;2024-02-23T08:03:31;10.30;63.50
37910;DHT22;23741;49.446;8.754;2024-02-23T08:05:33;10.30;63.40
37910;DHT22;23741;49.446;8.754;2024-02-23T08:07:35;10.30;63.70
37910;DHT22;23741;49.446;8.754;2024-02-23T08:09:37;10.30;63.80
37910;DHT22;23741;49.446;8.754;2024-02-23T08:11:39;10.40;63.80
37910;DHT22;23741;49.446;8.754;2024-02-23T08:13:41;10.40;64.20
37910;DHT22;23741;49.446;8.754;2024-02-23T08:15:43;10.40;64.20
37910;DHT22;23741;49.446;8.754;2024-02-23T08:17:45;10.50;64.40
37910;DHT22;23741;49.446;8.754;2024-02-23T08:19:47;10.50;64.90
37910;DHT22;23741;49.446;8.754;2024-02-23T08:21:49;10.50;63.50
37910;DHT22;23741;49.446;8.754;2024-02-23T08:23:51;10.50;63.50
37910;DHT22;23741;49.446;8.754;2024-02-23T08:25:53;10.50;63.10
37910;DHT22;23741;49.446;8.754;2024-02-23T08:27:58;10.60;63.40
37910;DHT22;23741;49.446;8.754;2024-02-23T08:30:01;10.60;63.40
37910;DHT22;23741;49.446;8.754;2024-02-23T08:32:03;10.60;63.00
37910;DHT22;23741;49.446;8.754;2024-02-23T08:34:05;10.60;63.10
37910;DHT22;23741;49.446;8.754;2024-02-23T08:36:07;10.60;63.30
37910;DHT22;23741;49.446;8.754;2024-02-23T08:38:10;10.60;63.30
37910;DHT22;23741;49.446;8.754;2024-02-23T08:40:12;10.60;63.30
37910;DHT22;23741;49.446;8.754;2024-02-23T08:42:14;10.70;64.00
37910;DHT22;23741;49.446;8.754;2024-02-23T08:44:16;10.70;63.50
37910;DHT22;23741;49.446;8.754;2024-02-23T08:46:18;10.70;63.70
37910;DHT22;23741;49.446;8.754;2024-02-23T08:48:20;10.70;63.20
37910;DHT22;23741;49.446;8.754;2024-02-23T08:50:22;10.70;63.00
37910;DHT22;23741;49.446;8.754;2024-02-23T08:52:24;10.80;63.10
37910;DHT22;23741;49.446;8.754;2024-02-23T08:54:27;10.80;64.00
37910;DHT22;23741;49.446;8.754;2024-02-23T08:56:28;10.80;63.10
37910;DHT22;23741;49.446;8.754;2024-02-23T08:58:30;10.80;63.50
37910;DHT22;23741;49.446;8.754;2024-02-23T09:00:32;10.90;63.10
37910;DHT22;23741;49.446;8.754;2024-02-23T09:02:34;10.90;63.20
37910;DHT22;23741;49.446;8.754;2024-02-23T09:04:37;10.90;63.40
37910;DHT22;23741;49.446;8.754;2024-02-23T09:06:39;11.00;63.70
37910;DHT22;23741;49.446;8.754;2024-02-23T09:08:41;11.00;63.60
37910;DHT22;23741;49.446;8.754;2024-02-23T09:10:43;11.10;63.60
37910;DHT22;23741;49.446;8.754;2024-02-23T09:12:45;11.10;64.00
37910;DHT22;23741;49.446;8.754;2024-02-23T09:14:47;11.10;63.50
37910;DHT22;23741;49.446;8.754;2024-02-23T09:16:49;11.20;63.70
37910;DHT22;23741;49.446;8.754;2024-02-23T09:18:52;11.20;64.10
37910;DHT22;23741;49.446;8.754;2024-02-23T09:20:54;11.20;63.10
37910;DHT22;23741;49.446;8.754;2024-02-23T09:22:56;11.20;63.80
37910;DHT22;23741;49.446;8.754;2024-02-23T09:24:58;11.20;63.00
37910;DHT22;23741;49.446;8.754;2024-02-23T09:27:00;11.30;63.20
37910;DHT22;23741;49.446;8.754;2024-02-23T09:29:02;11.30;63.30
37910;DHT22;23741;49.446;8.754;2024-02-23T09:31:04;11.30;63.00
37910;DHT22;23741;49.446;8.754;2024-02-23T09:33:06;11.30;63.00
37910;DHT22;23741;49.446;8.754;2024-02-23T09:35:08;11.30;63.00
37910;DHT22;23741;49.446;8.754;2024-02-23T09:37:10;11.30;62.60
37910;DHT22;23741;49.446;8.754;2024-02-23T09:39:12;11.40;63.20
37910;DHT22;23741;49.446;8.754;2024-02-23T09:41:20;11.30;63.20
37910;DHT22;23741;49.446;8.754;2024-02-23T09:43:22;11.40;63.60
37910;DHT22;23741;49.446;8.754;2024-02-23T09:45:28;11.40;63.20
37910;DHT22;23741;49.446;8.754;2024-02-23T09:47:30;11.40;63.00
37910;DHT22;23741;49.446;8.754;2024-02-23T09:49:32;11.40;63.30
37910;DHT22;23741;49.446;8.754;2024-02-23T09:51:35;11.40;62.90
37910;DHT22;23741;49.446;8.754;2024-02-23T09:53:38;11.50;63.00
37910;DHT22;23741;49.446;8.754;2024-02-23T09:55:40;11.50;62.50
37910;DHT22;23741;49.446;8.754;2024-02-23T09:57:42;11.50;62.70
37910;DHT22;23741;49.446;8.754;2024-02-23T09:59:45;11.60;62.50
37910;DHT22;23741;49.446;8.754;2024-02-23T10:01:48;11.50;62.30
37910;DHT22;23741;49.446;8.754;2024-02-23T10:03:57;11.60;63.50
37910;DHT22;23741;49.446;8.754;2024-02-23T10:06:02;11.60;63.50
37910;DHT22;23741;49.446;8.754;2024-02-23T10:08:04;11.70;62.80
37910;DHT22;23741;49.446;8.754;2024-02-23T10:10:07;11.70;62.50
37910;DHT22;23741;49.446;8.754;2024-02-23T10:12:09;11.80;62.40
37910;DHT22;23741;49.446;8.754;2024-02-23T10:14:11;11.80;63.10
37910;DHT22;23741;49.446;8.754;2024-02-23T10:16:13;11.90;62.20
37910;DHT22;23741;49.446;8.754;2024-02-23T10:18:16;11.90;62.00
37910;DHT22;23741;49.446;8.754;2024-02-23T10:20:18;11.90;62.00
37910;DHT22;23741;49.446;8.754;2024-02-23T10:22:20;12.00;62.40
37910;DHT22;23741;49.446;8.754;2024-02-23T10:24:23;12.00;62.60
37910;DHT22;23741;49.446;8.754;2024-02-23T10:26:26;12.00;62.60
37910;DHT22;23741;49.446;8.754;2024-02-23T10:28:28;12.10;62.80
37910;DHT22;23741;49.446;8.754;2024-02-23T10:30:30;12.10;62.70
37910;DHT22;23741;49.446;8.754;2024-02-23T10:32:32;12.20;63.10
37910;DHT22;23741;49.446;8.754;2024-02-23T10:34:35;12.20;61.90
37910;DHT22;23741;49.446;8.754;2024-02-23T10:36:42;12.20;61.30
37910;DHT22;23741;49.446;8.754;2024-02-23T10:38:45;12.20;61.70
37910;DHT22;23741;49.446;8.754;2024-02-23T10:40:47;12.20;61.40
37910;DHT22;23741;49.446;8.754;2024-02-23T10:42:50;12.30;61.40
37910;DHT22;23741;49.446;8.754;2024-02-23T10:44:53;12.30;62.30
37910;DHT22;23741;49.446;8.754;2024-02-23T10:46:58;12.30;61.70
37910;DHT22;23741;49.446;8.754;2024-02-23T10:49:00;12.30;61.60
37910;DHT22;23741;49.446;8.754;2024-02-23T10:51:03;12.30;60.50
37910;DHT22;23741;49.446;8.754;2024-02-23T10:53:07;12.30;61.50
37910;DHT22;23741;49.446;8.754;2024-02-23T10:55:10;12.30;61.50
37910;DHT22;23741;49.446;8.754;2024-02-23T10:57:13;12.40;61.80
37910;DHT22;23741;49.446;8.754;2024-02-23T10:59:18;12.40;61.70
37910;DHT22;23741;49.446;8.754;2024-02-23T11:01:20;12.50;61.50
37910;DHT22;23741;49.446;8.754;2024-02-23T11:03:23;12.50;61.80
37910;DHT22;23741;49.446;8.754;2024-02-23T11:05:25;12.60;61.40
37910;DHT22;23741;49.446;8.754;2024-02-23T11:07:29;12.60;62.00
37910;DHT22;23741;49.446;8.754;2024-02-23T11:09:31;12.60;61.10
37910;DHT22;23741;49.446;8.754;2024-02-23T11:11:33;12.70;60.60
37910;DHT22;23741;49.446;8.754;2024-02-23T11:13:36;12.70;60.80
37910;DHT22;23741;49.446;8.754;2024-02-23T11:15:41;12.70;61.00
37910;DHT22;23741;49.446;8.754;2024-02-23T11:17:49;12.70;61.00
37910;DHT22;23741;49.446;8.754;2024-02-23T11:19:51;12.70;60.40
37910;DHT22;23741;49.446;8.754;2024-02-23T11:21:53;12.70;60.00
37910;DHT22;23741;49.446;8.754;2024-02-23T11:23:55;12.70;60.50
37910;DHT22;23741;49.446;8.754;2024-02-23T11:28:04;12.70;60.20
37910;DHT22;23741;49.446;8.754;2024-02-23T11:30:09;12.70;60.80
37910;DHT22;23741;49.446;8.754;2024-02-23T11:32:17;12.70;59.40
37910;DHT22;23741;49.446;8.754;2024-02-23T11:34:22;12.70;60.10
37910;DHT22;23741;49.446;8.754;2024-02-23T11:36:30;12.70;60.10
37910;DHT22;23741;49.446;8.754;2024-02-23T11:38:33;12.70;60.80
37910;DHT22;23741;49.446;8.754;2024-02-23T11:40:38;12.70;60.00
37910;DHT22;23741;49.446;8.754;2024-02-23T11:42:43;12.70;60.10
37910;DHT22;23741;49.446;8.754;2024-02-23T11:44:45;12.80;60.70
37910;DHT22;23741;49.446;8.754;2024-02-23T11:46:47;12.80;60.20
37910;DHT22;23741;49.446;8.754;2024-02-23T11:48:49;12.80;60.30
37910;DHT22;23741;49.446;8.754;2024-02-23T11:50:57;12.90;60.90
37910;DHT22;23741;49.446;8.754;2024-02-23T11:52:59;13.00;61.10
37910;DHT22;23741;49.446;8.754;2024-02-23T11:55:01;13.00;60.50
37910;DHT22;23741;49.446;8.754;2024-02-23T11:57:04;13.10;61.00
37910;DHT22;23741;49.446;8.754;2024-02-23T11:59:05;13.20;61.00
37910;DHT22;23741;49.446;8.754;2024-02-23T12:01:07;13.30;60.60
37910;DHT22;23741;49.446;8.754;2024-02-23T12:03:09;13.30;60.90
37910;DHT22;23741;49.446;8.754;2024-02-23T12:05:11;13.30;61.50
37910;DHT22;23741;49.446;8.754;2024-02-23T12:07:15;13.40;60.80
37910;DHT22;23741;49.446;8.754;2024-02-23T12:09:17;13.50;60.30
37910;DHT22;23741;49.446;8.754;2024-02-23T12:11:19;13.50;59.50
37910;DHT22;23741;49.446;8.754;2024-02-23T12:13:22;13.50;59.40
37910;DHT22;23741;49.446;8.754;2024-02-23T12:15:24;13.50;59.60
37910;DHT22;23741;49.446;8.754;2024-02-23T12:17:26;13.60;60.70
37910;DHT22;23741;49.446;8.754;2024-02-23T12:19:29;13.60;59.80
37910;DHT22;23741;49.446;8.754;2024-02-23T12:21:33;13.60;59.50
37910;DHT22;23741;49.446;8.754;2024-02-23T12:23:42;13.60;59.40
37910;DHT22;23741;49.446;8.754;2024-02-23T12:25:54;13.60;59.40
37910;DHT22;23741;49.446;8.754;2024-02-23T12:27:56;13.60;59.10
37910;DHT22;23741;49.446;8.754;2024-02-23T12:30:01;13.60;58.70
37910;DHT22;23741;49.446;8.754;2024-02-23T12:32:06;13.60;59.40
37910;DHT22;23741;49.446;8.754;2024-02-23T12:34:11;13.60;59.50
37910;DHT22;23741;49.446;8.754;2024-02-23T12:36:13;13.50;59.50
37910;DHT22;23741;49.446;8.754;2024-02-23T12:38:15;13.50;58.90
37910;DHT22;23741;49.446;8.754;2024-02-23T12:40:17;13.50;58.80
37910;DHT22;23741;49.446;8.754;2024-02-23T12:42:19;13.50;58.90
37910;DHT22;23741;49.446;8.754;2024-02-23T12:44:21;13.50;58.60
37910;DHT22;23741;49.446;8.754;2024-02-23T12:46:23;13.50;58.80
37910;DHT22;23741;49.446;8.754;2024-02-23T12:48:25;13.50;59.40
37910;DHT22;23741;49.446;8.754;2024-02-23T12:50:29;13.50;59.50
37910;DHT22;23741;49.446;8.754;2024-02-23T12:52:31;13.40;59.00
37910;DHT22;23741;49.446;8.754;2024-02-23T12:54:33;13.40;58.90
37910;DHT22;23741;49.446;8.754;2024-02-23T12:56:35;13.40;58.60
37910;DHT22;23741;49.446;8.754;2024-02-23T12:58:40;13.40;58.70
37910;DHT22;23741;49.446;8.754;2024-02-23T13:00:42;13.40;58.90
37910;DHT22;23741;49.446;8.754;2024-02-23T13:02:44;13.40;58.90
37910;DHT22;23741;49.446;8.754;2024-02-23T13:04:46;13.40;58.90
37910;DHT22;23741;49.446;8.754;2024-02-23T13:06:51;13.40;58.60
37910;DHT22;23741;49.446;8.754;2024-02-23T13:08:53;13.30;59.20